sensor_id;sensor_type;location;lat;lon;timestamp;P1;durP1;ratioP1;P2;durP2;ratioP2
59310;SDS011;45078;51.654;21.250;2023-04-12T00:02:06;15.27;;;8.18;;
59310;SDS011;45078;51.654;21.250;2023-04-12T00:04:32;17.95;;;8.43;;
59310;SDS011;45078;51.654;21.250;2023-04-12T00:06:59;14.32;;;7.43;;
59310;SDS011;45078;51.654;21.250;2023-04-12T00:09:29;23.38;;;10.95;;
59310;SDS011;45078;51.654;21.250;2023-04-12T00:11:56;22.85;;;11.38;;
59310;SDS011;45078;51.654;21.250;2023-04-12T00:14:22;20.50;;;10.63;;
59310;SDS011;45078;51.654;21.250;2023-04-12T00:16:49;27.83;;;11.57;;
59310;SDS011;45078;51.654;21.250;2023-04-12T00:19:15;23.90;;;11.07;;
59310;SDS011;45078;51.654;21.250;2023-04-12T00:21:41;23.27;;;10.23;;
59310;SDS011;45078;51.654;21.250;2023-04-12T00:24:08;23.70;;;11.10;;
59310;SDS011;45078;51.654;21.250;2023-04-12T00:26:33;26.23;;;11.75;;
59310;SDS011;45078;51.654;21.250;2023-04-12T00:28:59;24.80;;;10.40;;
59310;SDS011;45078;51.654;21.250;2023-04-12T00:31:25;25.63;;;11.95;;
59310;SDS011;45078;51.654;21.250;2023-04-12T00:33:51;25.92;;;12.13;;
59310;SDS011;45078;51.654;21.250;2023-04-12T00:36:17;26.73;;;12.35;;
59310;SDS011;45078;51.654;21.250;2023-04-12T00:38:43;21.58;;;10.40;;
59310;SDS011;45078;51.654;21.250;2023-04-12T00:41:12;24.30;;;11.50;;
59310;SDS011;45078;51.654;21.250;2023-04-12T00:43:41;26.58;;;12.57;;
59310;SDS011;45078;51.654;21.250;2023-04-12T00:46:07;26.23;;;11.23;;
59310;SDS011;45078;51.654;21.250;2023-04-12T00:48:33;21.85;;;10.43;;
59310;SDS011;45078;51.654;21.250;2023-04-12T00:51:00;26.25;;;12.70;;
59310;SDS011;45078;51.654;21.250;2023-04-12T00:53:28;22.75;;;11.18;;
59310;SDS011;45078;51.654;21.250;2023-04-12T00:55:55;23.67;;;12.20;;
59310;SDS011;45078;51.654;21.250;2023-04-12T00:58:22;24.67;;;11.32;;
59310;SDS011;45078;51.654;21.250;2023-04-12T01:00:48;22.95;;;10.93;;
59310;SDS011;45078;51.654;21.250;2023-04-12T01:03:20;25.35;;;11.30;;
59310;SDS011;45078;51.654;21.250;2023-04-12T01:09:06;25.17;;;11.93;;
59310;SDS011;45078;51.654;21.250;2023-04-12T01:14:54;24.83;;;11.15;;
59310;SDS011;45078;51.654;21.250;2023-04-12T01:17:27;26.25;;;10.77;;
59310;SDS011;45078;51.654;21.250;2023-04-12T01:20:05;21.20;;;10.57;;
59310;SDS011;45078;51.654;21.250;2023-04-12T01:28:03;23.73;;;11.65;;
59310;SDS011;45078;51.654;21.250;2023-04-12T01:30:30;21.23;;;10.13;;
59310;SDS011;45078;51.654;21.250;2023-04-12T01:32:58;22.38;;;10.55;;
59310;SDS011;45078;51.654;21.250;2023-04-12T01:35:28;19.13;;;9.32;;
59310;SDS011;45078;51.654;21.250;2023-04-12T01:37:58;18.58;;;9.43;;
59310;SDS011;45078;51.654;21.250;2023-04-12T01:40:26;19.08;;;9.23;;
59310;SDS011;45078;51.654;21.250;2023-04-12T01:43:05;14.05;;;7.57;;
59310;SDS011;45078;51.654;21.250;2023-04-12T01:45:32;12.30;;;6.18;;
59310;SDS011;45078;51.654;21.250;2023-04-12T01:47:59;14.80;;;6.80;;
59310;SDS011;45078;51.654;21.250;2023-04-12T01:50:38;11.75;;;6.10;;
59310;SDS011;45078;51.654;21.250;2023-04-12T01:55:59;8.02;;;5.15;;
59310;SDS011;45078;51.654;21.250;2023-04-12T01:58:28;10.95;;;4.97;;
59310;SDS011;45078;51.654;21.250;2023-04-12T02:00:55;11.43;;;5.88;;
59310;SDS011;45078;51.654;21.250;2023-04-12T02:03:22;10.20;;;5.30;;
59310;SDS011;45078;51.654;21.250;2023-04-12T02:05:49;8.88;;;4.57;;
59310;SDS011;45078;51.654;21.250;2023-04-12T02:08:16;8.18;;;4.40;;
59310;SDS011;45078;51.654;21.250;2023-04-12T02:10:42;8.98;;;4.50;;
59310;SDS011;45078;51.654;21.250;2023-04-12T02:13:07;10.20;;;4.80;;
59310;SDS011;45078;51.654;21.250;2023-04-12T02:15:33;8.05;;;4.53;;
59310;SDS011;45078;51.654;21.250;2023-04-12T02:18:01;8.63;;;5.03;;
59310;SDS011;45078;51.654;21.250;2023-04-12T02:20:27;8.50;;;4.60;;
59310;SDS011;45078;51.654;21.250;2023-04-12T02:22:53;8.43;;;4.72;;
59310;SDS011;45078;51.654;21.250;2023-04-12T02:25:19;7.55;;;3.97;;
59310;SDS011;45078;51.654;21.250;2023-04-12T02:27:44;9.05;;;4.80;;
59310;SDS011;45078;51.654;21.250;2023-04-12T02:30:11;8.60;;;4.28;;
59310;SDS011;45078;51.654;21.250;2023-04-12T02:32:38;8.82;;;4.20;;
59310;SDS011;45078;51.654;21.250;2023-04-12T02:35:10;10.40;;;5.30;;
59310;SDS011;45078;51.654;21.250;2023-04-12T02:37:37;8.60;;;4.82;;
59310;SDS011;45078;51.654;21.250;2023-04-12T02:40:03;8.43;;;4.13;;
59310;SDS011;45078;51.654;21.250;2023-04-12T02:42:31;11.25;;;4.90;;
59310;SDS011;45078;51.654;21.250;2023-04-12T02:44:57;9.10;;;5.07;;
59310;SDS011;45078;51.654;21.250;2023-04-12T02:47:23;8.65;;;4.75;;
59310;SDS011;45078;51.654;21.250;2023-04-12T02:49:53;11.07;;;4.70;;
59310;SDS011;45078;51.654;21.250;2023-04-12T02:52:19;9.93;;;4.70;;
59310;SDS011;45078;51.654;21.250;2023-04-12T02:54:45;11.02;;;4.95;;
59310;SDS011;45078;51.654;21.250;2023-04-12T02:57:13;10.30;;;4.80;;
59310;SDS011;45078;51.654;21.250;2023-04-12T02:59:40;10.80;;;5.13;;
59310;SDS011;45078;51.654;21.250;2023-04-12T03:02:07;13.18;;;4.93;;
59310;SDS011;45078;51.654;21.250;2023-04-12T03:04:33;10.73;;;5.10;;
59310;SDS011;45078;51.654;21.250;2023-04-12T03:07:01;12.05;;;5.35;;
59310;SDS011;45078;51.654;21.250;2023-04-12T03:09:27;8.65;;;5.00;;
59310;SDS011;45078;51.654;21.250;2023-04-12T03:11:53;9.73;;;5.50;;
59310;SDS011;45078;51.654;21.250;2023-04-12T03:14:19;11.05;;;5.72;;
59310;SDS011;45078;51.654;21.250;2023-04-12T03:16:45;11.00;;;4.78;;
59310;SDS011;45078;51.654;21.250;2023-04-12T03:19:10;10.52;;;5.32;;
59310;SDS011;45078;51.654;21.250;2023-04-12T03:21:38;12.73;;;5.70;;
59310;SDS011;45078;51.654;21.250;2023-04-12T03:24:04;12.73;;;5.55;;
59310;SDS011;45078;51.654;21.250;2023-04-12T03:26:30;11.45;;;6.32;;
59310;SDS011;45078;51.654;21.250;2023-04-12T03:28:57;14.07;;;6.18;;
59310;SDS011;45078;51.654;21.250;2023-04-12T03:31:25;12.50;;;6.75;;
59310;SDS011;45078;51.654;21.250;2023-04-12T03:33:51;13.02;;;6.10;;
59310;SDS011;45078;51.654;21.250;2023-04-12T03:36:17;13.35;;;6.75;;
59310;SDS011;45078;51.654;21.250;2023-04-12T03:38:45;16.70;;;6.55;;
59310;SDS011;45078;51.654;21.250;2023-04-12T03:41:11;17.85;;;6.95;;
59310;SDS011;45078;51.654;21.250;2023-04-12T03:43:37;18.73;;;7.50;;
59310;SDS011;45078;51.654;21.250;2023-04-12T03:46:03;16.55;;;7.80;;
59310;SDS011;45078;51.654;21.250;2023-04-12T03:48:30;13.27;;;5.75;;
59310;SDS011;45078;51.654;21.250;2023-04-12T03:50:56;19.02;;;7.88;;
59310;SDS011;45078;51.654;21.250;2023-04-12T03:53:26;16.10;;;7.45;;
59310;SDS011;45078;51.654;21.250;2023-04-12T03:55:52;19.27;;;8.10;;
59310;SDS011;45078;51.654;21.250;2023-04-12T03:58:21;16.90;;;8.23;;
59310;SDS011;45078;51.654;21.250;2023-04-12T04:00:47;16.08;;;7.20;;
59310;SDS011;45078;51.654;21.250;2023-04-12T04:03:13;16.17;;;8.38;;
59310;SDS011;45078;51.654;21.250;2023-04-12T04:05:40;19.02;;;8.35;;
59310;SDS011;45078;51.654;21.250;2023-04-12T04:08:06;19.20;;;8.70;;
59310;SDS011;45078;51.654;21.250;2023-04-12T04:10:33;25.15;;;10.02;;
59310;SDS011;45078;51.654;21.250;2023-04-12T04:12:58;25.75;;;10.55;;
59310;SDS011;45078;51.654;21.250;2023-04-12T04:15:24;26.98;;;11.98;;
59310;SDS011;45078;51.654;21.250;2023-04-12T04:17:51;19.88;;;9.00;;
59310;SDS011;45078;51.654;21.250;2023-04-12T04:20:17;23.35;;;10.68;;
59310;SDS011;45078;51.654;21.250;2023-04-12T04:22:43;27.30;;;10.95;;
59310;SDS011;45078;51.654;21.250;2023-04-12T04:25:12;25.55;;;10.55;;
59310;SDS011;45078;51.654;21.250;2023-04-12T04:27:42;29.38;;;11.57;;
59310;SDS011;45078;51.654;21.250;2023-04-12T04:30:12;27.42;;;12.10;;
59310;SDS011;45078;51.654;21.250;2023-04-12T04:32:39;24.25;;;11.13;;
59310;SDS011;45078;51.654;21.250;2023-04-12T04:35:06;29.10;;;11.45;;
59310;SDS011;45078;51.654;21.250;2023-04-12T04:37:32;25.02;;;10.60;;
59310;SDS011;45078;51.654;21.250;2023-04-12T04:39:59;26.52;;;11.10;;
59310;SDS011;45078;51.654;21.250;2023-04-12T04:42:35;28.13;;;11.07;;
59310;SDS011;45078;51.654;21.250;2023-04-12T04:45:04;28.13;;;10.75;;
59310;SDS011;45078;51.654;21.250;2023-04-12T04:47:39;26.45;;;10.90;;
59310;SDS011;45078;51.654;21.250;2023-04-12T04:50:05;30.60;;;10.88;;
59310;SDS011;45078;51.654;21.250;2023-04-12T04:52:31;25.05;;;10.77;;
59310;SDS011;45078;51.654;21.250;2023-04-12T04:54:57;20.70;;;10.15;;
59310;SDS011;45078;51.654;21.250;2023-04-12T04:57:23;27.08;;;12.05;;
59310;SDS011;45078;51.654;21.250;2023-04-12T04:59:50;27.63;;;10.65;;
59310;SDS011;45078;51.654;21.250;2023-04-12T05:02:16;27.45;;;10.77;;
59310;SDS011;45078;51.654;21.250;2023-04-12T05:04:42;29.40;;;11.15;;
59310;SDS011;45078;51.654;21.250;2023-04-12T05:07:08;29.13;;;12.00;;
59310;SDS011;45078;51.654;21.250;2023-04-12T05:09:34;30.27;;;11.55;;
59310;SDS011;45078;51.654;21.250;2023-04-12T05:12:00;21.77;;;9.68;;
59310;SDS011;45078;51.654;21.250;2023-04-12T05:14:26;21.13;;;9.27;;
59310;SDS011;45078;51.654;21.250;2023-04-12T05:16:51;24.02;;;10.43;;
59310;SDS011;45078;51.654;21.250;2023-04-12T05:19:18;22.75;;;10.18;;
59310;SDS011;45078;51.654;21.250;2023-04-12T05:21:45;23.95;;;10.30;;
59310;SDS011;45078;51.654;21.250;2023-04-12T05:24:10;22.25;;;9.68;;
59310;SDS011;45078;51.654;21.250;2023-04-12T05:26:36;23.40;;;8.95;;
59310;SDS011;45078;51.654;21.250;2023-04-12T05:29:02;22.38;;;9.68;;
59310;SDS011;45078;51.654;21.250;2023-04-12T05:31:28;23.63;;;10.85;;
59310;SDS011;45078;51.654;21.250;2023-04-12T05:33:53;24.30;;;10.25;;
59310;SDS011;45078;51.654;21.250;2023-04-12T05:36:19;25.48;;;10.25;;
59310;SDS011;45078;51.654;21.250;2023-04-12T05:38:45;25.73;;;10.23;;
59310;SDS011;45078;51.654;21.250;2023-04-12T05:41:11;26.30;;;10.65;;
59310;SDS011;45078;51.654;21.250;2023-04-12T05:43:37;25.13;;;9.43;;
59310;SDS011;45078;51.654;21.250;2023-04-12T05:46:05;23.60;;;10.63;;
59310;SDS011;45078;51.654;21.250;2023-04-12T05:48:35;22.73;;;9.82;;
59310;SDS011;45078;51.654;21.250;2023-04-12T05:51:01;25.52;;;10.48;;
59310;SDS011;45078;51.654;21.250;2023-04-12T05:53:29;23.65;;;9.35;;
59310;SDS011;45078;51.654;21.250;2023-04-12T05:55:57;26.05;;;10.55;;
59310;SDS011;45078;51.654;21.250;2023-04-12T05:58:23;23.75;;;10.70;;
59310;SDS011;45078;51.654;21.250;2023-04-12T06:00:48;21.17;;;8.50;;
59310;SDS011;45078;51.654;21.250;2023-04-12T06:03:15;22.23;;;9.70;;
59310;SDS011;45078;51.654;21.250;2023-04-12T06:05:41;22.75;;;9.32;;
59310;SDS011;45078;51.654;21.250;2023-04-12T06:08:06;22.08;;;9.77;;
59310;SDS011;45078;51.654;21.250;2023-04-12T06:10:32;24.23;;;10.75;;
59310;SDS011;45078;51.654;21.250;2023-04-12T06:12:58;20.30;;;9.50;;
59310;SDS011;45078;51.654;21.250;2023-04-12T06:15:24;23.92;;;10.48;;
59310;SDS011;45078;51.654;21.250;2023-04-12T06:17:50;26.65;;;11.05;;
59310;SDS011;45078;51.654;21.250;2023-04-12T06:20:16;26.60;;;11.40;;
59310;SDS011;45078;51.654;21.250;2023-04-12T06:22:41;27.42;;;10.07;;
59310;SDS011;45078;51.654;21.250;2023-04-12T06:25:07;28.70;;;11.13;;
59310;SDS011;45078;51.654;21.250;2023-04-12T06:27:33;26.35;;;10.77;;
59310;SDS011;45078;51.654;21.250;2023-04-12T06:29:59;25.45;;;10.48;;
59310;SDS011;45078;51.654;21.250;2023-04-12T06:32:25;20.90;;;10.48;;
59310;SDS011;45078;51.654;21.250;2023-04-12T06:34:51;27.45;;;11.00;;
59310;SDS011;45078;51.654;21.250;2023-04-12T06:37:17;24.00;;;10.77;;
59310;SDS011;45078;51.654;21.250;2023-04-12T06:39:42;26.13;;;10.82;;
59310;SDS011;45078;51.654;21.250;2023-04-12T06:42:08;23.15;;;10.55;;
59310;SDS011;45078;51.654;21.250;2023-04-12T06:44:34;21.70;;;9.68;;
59310;SDS011;45078;51.654;21.250;2023-04-12T06:47:00;22.60;;;10.30;;
59310;SDS011;45078;51.654;21.250;2023-04-12T06:49:25;18.95;;;8.75;;
59310;SDS011;45078;51.654;21.250;2023-04-12T06:51:51;21.00;;;9.95;;
59310;SDS011;45078;51.654;21.250;2023-04-12T06:54:17;25.00;;;10.00;;
59310;SDS011;45078;51.654;21.250;2023-04-12T06:56:43;20.40;;;9.50;;
59310;SDS011;45078;51.654;21.250;2023-04-12T06:59:08;22.50;;;9.68;;
59310;SDS011;45078;51.654;21.250;2023-04-12T07:01:34;18.75;;;8.75;;
59310;SDS011;45078;51.654;21.250;2023-04-12T07:04:00;19.65;;;9.20;;
59310;SDS011;45078;51.654;21.250;2023-04-12T07:06:28;18.95;;;9.57;;
59310;SDS011;45078;51.654;21.250;2023-04-12T07:08:55;20.75;;;10.00;;
59310;SDS011;45078;51.654;21.250;2023-04-12T07:11:21;19.83;;;9.63;;
59310;SDS011;45078;51.654;21.250;2023-04-12T07:13:47;23.70;;;10.43;;
59310;SDS011;45078;51.654;21.250;2023-04-12T07:16:13;19.48;;;9.95;;
59310;SDS011;45078;51.654;21.250;2023-04-12T07:18:38;20.17;;;8.43;;
59310;SDS011;45078;51.654;21.250;2023-04-12T07:21:05;23.45;;;10.65;;
59310;SDS011;45078;51.654;21.250;2023-04-12T07:23:31;19.40;;;8.73;;
59310;SDS011;45078;51.654;21.250;2023-04-12T07:25:59;19.70;;;8.95;;
59310;SDS011;45078;51.654;21.250;2023-04-12T07:28:26;20.02;;;9.18;;
59310;SDS011;45078;51.654;21.250;2023-04-12T07:30:52;19.95;;;9.07;;
59310;SDS011;45078;51.654;21.250;2023-04-12T07:33:18;22.63;;;9.00;;
59310;SDS011;45078;51.654;21.250;2023-04-12T07:35:43;19.75;;;8.43;;
59310;SDS011;45078;51.654;21.250;2023-04-12T07:38:09;17.77;;;8.32;;
59310;SDS011;45078;51.654;21.250;2023-04-12T07:40:35;19.52;;;10.15;;
59310;SDS011;45078;51.654;21.250;2023-04-12T07:43:01;23.67;;;9.75;;
59310;SDS011;45078;51.654;21.250;2023-04-12T07:45:27;20.92;;;9.55;;
59310;SDS011;45078;51.654;21.250;2023-04-12T07:47:53;19.08;;;8.27;;
59310;SDS011;45078;51.654;21.250;2023-04-12T07:50:19;19.80;;;9.20;;
59310;SDS011;45078;51.654;21.250;2023-04-12T07:52:45;20.48;;;9.00;;
59310;SDS011;45078;51.654;21.250;2023-04-12T07:55:10;19.50;;;9.10;;
59310;SDS011;45078;51.654;21.250;2023-04-12T07:57:36;17.20;;;7.97;;
59310;SDS011;45078;51.654;21.250;2023-04-12T08:00:02;19.10;;;8.85;;
59310;SDS011;45078;51.654;21.250;2023-04-12T08:02:30;21.15;;;9.00;;
59310;SDS011;45078;51.654;21.250;2023-04-12T08:04:55;19.15;;;8.70;;
59310;SDS011;45078;51.654;21.250;2023-04-12T08:07:21;19.65;;;9.45;;
59310;SDS011;45078;51.654;21.250;2023-04-12T08:09:48;17.50;;;8.48;;
59310;SDS011;45078;51.654;21.250;2023-04-12T08:12:14;18.85;;;9.40;;
59310;SDS011;45078;51.654;21.250;2023-04-12T08:14:40;17.98;;;8.23;;
59310;SDS011;45078;51.654;21.250;2023-04-12T08:17:06;18.00;;;8.88;;
59310;SDS011;45078;51.654;21.250;2023-04-12T08:19:31;19.38;;;9.60;;
59310;SDS011;45078;51.654;21.250;2023-04-12T08:21:57;19.48;;;7.43;;
59310;SDS011;45078;51.654;21.250;2023-04-12T08:24:23;15.52;;;8.05;;
59310;SDS011;45078;51.654;21.250;2023-04-12T08:26:49;16.15;;;7.25;;
59310;SDS011;45078;51.654;21.250;2023-04-12T08:29:15;16.60;;;8.30;;
59310;SDS011;45078;51.654;21.250;2023-04-12T08:31:42;18.08;;;9.43;;
59310;SDS011;45078;51.654;21.250;2023-04-12T08:34:08;19.27;;;8.75;;
59310;SDS011;45078;51.654;21.250;2023-04-12T08:36:34;14.85;;;8.25;;
59310;SDS011;45078;51.654;21.250;2023-04-12T08:38:59;19.30;;;9.23;;
59310;SDS011;45078;51.654;21.250;2023-04-12T08:41:26;17.88;;;7.95;;
59310;SDS011;45078;51.654;21.250;2023-04-12T08:43:52;19.95;;;9.80;;
59310;SDS011;45078;51.654;21.250;2023-04-12T08:46:21;17.40;;;8.32;;
59310;SDS011;45078;51.654;21.250;2023-04-12T08:48:48;20.83;;;10.07;;
59310;SDS011;45078;51.654;21.250;2023-04-12T08:51:18;18.40;;;9.02;;
59310;SDS011;45078;51.654;21.250;2023-04-12T08:53:45;22.27;;;9.45;;
59310;SDS011;45078;51.654;21.250;2023-04-12T08:56:12;21.38;;;9.77;;
59310;SDS011;45078;51.654;21.250;2023-04-12T08:58:39;17.05;;;7.03;;
59310;SDS011;45078;51.654;21.250;2023-04-12T09:01:10;16.42;;;7.80;;
59310;SDS011;45078;51.654;21.250;2023-04-12T09:03:38;20.23;;;9.45;;
59310;SDS011;45078;51.654;21.250;2023-04-12T09:06:04;18.13;;;8.77;;
59310;SDS011;45078;51.654;21.250;2023-04-12T09:08:30;22.88;;;9.25;;
59310;SDS011;45078;51.654;21.250;2023-04-12T09:10:56;17.27;;;8.15;;
59310;SDS011;45078;51.654;21.250;2023-04-12T09:13:34;19.35;;;8.82;;
59310;SDS011;45078;51.654;21.250;2023-04-12T09:16:03;19.77;;;9.65;;
59310;SDS011;45078;51.654;21.250;2023-04-12T09:18:29;16.40;;;8.65;;
59310;SDS011;45078;51.654;21.250;2023-04-12T09:21:07;17.98;;;8.57;;
59310;SDS011;45078;51.654;21.250;2023-04-12T09:23:35;15.63;;;7.72;;
59310;SDS011;45078;51.654;21.250;2023-04-12T09:26:01;16.08;;;7.93;;
59310;SDS011;45078;51.654;21.250;2023-04-12T09:28:28;16.33;;;7.88;;
59310;SDS011;45078;51.654;21.250;2023-04-12T09:30:55;19.35;;;8.63;;
59310;SDS011;45078;51.654;21.250;2023-04-12T09:33:36;16.75;;;8.63;;
59310;SDS011;45078;51.654;21.250;2023-04-12T09:36:02;17.67;;;8.50;;
59310;SDS011;45078;51.654;21.250;2023-04-12T09:38:29;19.85;;;8.77;;
59310;SDS011;45078;51.654;21.250;2023-04-12T09:40:56;16.25;;;7.97;;
59310;SDS011;45078;51.654;21.250;2023-04-12T09:46:10;17.60;;;9.00;;
59310;SDS011;45078;51.654;21.250;2023-04-12T09:48:40;16.75;;;8.75;;
59310;SDS011;45078;51.654;21.250;2023-04-12T09:51:12;19.67;;;9.43;;
59310;SDS011;45078;51.654;21.250;2023-04-12T09:53:47;18.10;;;9.35;;
59310;SDS011;45078;51.654;21.250;2023-04-12T09:56:15;15.48;;;8.63;;
59310;SDS011;45078;51.654;21.250;2023-04-12T09:58:43;19.33;;;8.80;;
59310;SDS011;45078;51.654;21.250;2023-04-12T10:01:10;21.70;;;9.43;;
59310;SDS011;45078;51.654;21.250;2023-04-12T10:03:37;23.27;;;9.15;;
59310;SDS011;45078;51.654;21.250;2023-04-12T10:06:02;17.83;;;9.02;;
59310;SDS011;45078;51.654;21.250;2023-04-12T10:08:29;16.45;;;8.60;;
59310;SDS011;45078;51.654;21.250;2023-04-12T10:10:56;14.85;;;8.32;;
59310;SDS011;45078;51.654;21.250;2023-04-12T10:13:22;17.42;;;9.35;;
59310;SDS011;45078;51.654;21.250;2023-04-12T10:15:50;17.08;;;8.23;;
59310;SDS011;45078;51.654;21.250;2023-04-12T10:18:17;17.15;;;9.25;;
59310;SDS011;45078;51.654;21.250;2023-04-12T10:20:44;16.30;;;8.18;;
59310;SDS011;45078;51.654;21.250;2023-04-12T10:23:11;19.38;;;8.95;;
59310;SDS011;45078;51.654;21.250;2023-04-12T10:25:38;20.05;;;9.32;;
59310;SDS011;45078;51.654;21.250;2023-04-12T10:28:17;20.25;;;8.70;;
59310;SDS011;45078;51.654;21.250;2023-04-12T10:30:45;19.80;;;8.43;;
59310;SDS011;45078;51.654;21.250;2023-04-12T10:33:14;20.20;;;9.00;;
59310;SDS011;45078;51.654;21.250;2023-04-12T10:38:12;16.35;;;8.20;;
59310;SDS011;45078;51.654;21.250;2023-04-12T10:40:40;16.02;;;8.75;;
59310;SDS011;45078;51.654;21.250;2023-04-12T10:43:31;14.77;;;7.60;;
59310;SDS011;45078;51.654;21.250;2023-04-12T10:45:57;19.67;;;8.80;;
59310;SDS011;45078;51.654;21.250;2023-04-12T10:51:23;16.30;;;8.43;;
59310;SDS011;45078;51.654;21.250;2023-04-12T10:53:51;17.27;;;8.73;;
59310;SDS011;45078;51.654;21.250;2023-04-12T10:59:08;18.25;;;8.40;;
59310;SDS011;45078;51.654;21.250;2023-04-12T11:01:35;18.23;;;8.57;;
59310;SDS011;45078;51.654;21.250;2023-04-12T11:04:04;15.40;;;8.07;;
59310;SDS011;45078;51.654;21.250;2023-04-12T11:06:53;16.67;;;8.57;;
59310;SDS011;45078;51.654;21.250;2023-04-12T11:09:21;17.88;;;8.75;;
59310;SDS011;45078;51.654;21.250;2023-04-12T11:11:56;18.92;;;9.50;;
59310;SDS011;45078;51.654;21.250;2023-04-12T11:14:32;17.23;;;8.95;;
59310;SDS011;45078;51.654;21.250;2023-04-12T11:22:26;15.40;;;8.30;;
59310;SDS011;45078;51.654;21.250;2023-04-12T11:24:54;14.88;;;7.97;;
59310;SDS011;45078;51.654;21.250;2023-04-12T11:27:22;19.00;;;9.65;;
59310;SDS011;45078;51.654;21.250;2023-04-12T11:29:49;17.65;;;9.25;;
59310;SDS011;45078;51.654;21.250;2023-04-12T11:32:23;23.55;;;9.48;;
59310;SDS011;45078;51.654;21.250;2023-04-12T11:34:52;17.42;;;8.93;;
59310;SDS011;45078;51.654;21.250;2023-04-12T11:37:19;16.25;;;8.75;;
59310;SDS011;45078;51.654;21.250;2023-04-12T11:39:46;17.73;;;8.98;;
59310;SDS011;45078;51.654;21.250;2023-04-12T11:42:27;19.48;;;9.15;;
59310;SDS011;45078;51.654;21.250;2023-04-12T11:44:53;17.50;;;9.43;;
59310;SDS011;45078;51.654;21.250;2023-04-12T11:47:20;17.15;;;9.18;;
59310;SDS011;45078;51.654;21.250;2023-04-12T11:49:48;15.48;;;8.90;;
59310;SDS011;45078;51.654;21.250;2023-04-12T11:52:20;15.75;;;8.63;;
59310;SDS011;45078;51.654;21.250;2023-04-12T11:54:47;18.52;;;9.25;;
59310;SDS011;45078;51.654;21.250;2023-04-12T11:57:15;16.27;;;8.05;;
59310;SDS011;45078;51.654;21.250;2023-04-12T11:59:43;16.65;;;8.20;;
59310;SDS011;45078;51.654;21.250;2023-04-12T12:02:11;15.85;;;8.38;;
59310;SDS011;45078;51.654;21.250;2023-04-12T12:04:39;15.52;;;8.32;;
59310;SDS011;45078;51.654;21.250;2023-04-12T12:07:06;15.63;;;8.80;;
59310;SDS011;45078;51.654;21.250;2023-04-12T12:09:33;15.73;;;7.85;;
59310;SDS011;45078;51.654;21.250;2023-04-12T12:11:59;17.33;;;8.80;;
59310;SDS011;45078;51.654;21.250;2023-04-12T12:14:25;13.88;;;6.57;;
59310;SDS011;45078;51.654;21.250;2023-04-12T12:16:58;13.95;;;8.60;;
59310;SDS011;45078;51.654;21.250;2023-04-12T12:19:37;16.08;;;8.02;;
59310;SDS011;45078;51.654;21.250;2023-04-12T12:22:13;16.23;;;8.93;;
59310;SDS011;45078;51.654;21.250;2023-04-12T12:24:50;14.90;;;8.32;;
59310;SDS011;45078;51.654;21.250;2023-04-12T12:30:07;17.58;;;9.13;;
59310;SDS011;45078;51.654;21.250;2023-04-12T12:32:36;16.58;;;8.73;;
59310;SDS011;45078;51.654;21.250;2023-04-12T12:35:09;17.20;;;9.43;;
59310;SDS011;45078;51.654;21.250;2023-04-12T12:37:37;13.30;;;7.03;;
59310;SDS011;45078;51.654;21.250;2023-04-12T12:40:12;16.48;;;8.82;;
59310;SDS011;45078;51.654;21.250;2023-04-12T12:42:45;15.02;;;8.48;;
59310;SDS011;45078;51.654;21.250;2023-04-12T12:45:13;12.98;;;7.97;;
59310;SDS011;45078;51.654;21.250;2023-04-12T12:50:29;14.98;;;8.65;;
59310;SDS011;45078;51.654;21.250;2023-04-12T12:52:57;14.23;;;7.82;;
59310;SDS011;45078;51.654;21.250;2023-04-12T12:55:25;16.33;;;6.30;;
59310;SDS011;45078;51.654;21.250;2023-04-12T12:57:51;15.18;;;7.93;;
59310;SDS011;45078;51.654;21.250;2023-04-12T13:00:18;13.10;;;7.22;;
59310;SDS011;45078;51.654;21.250;2023-04-12T13:02:46;13.52;;;7.75;;
59310;SDS011;45078;51.654;21.250;2023-04-12T13:05:12;12.13;;;7.25;;
59310;SDS011;45078;51.654;21.250;2023-04-12T13:07:38;14.68;;;7.88;;
59310;SDS011;45078;51.654;21.250;2023-04-12T13:10:04;12.65;;;7.05;;
59310;SDS011;45078;51.654;21.250;2023-04-12T13:12:31;16.73;;;8.73;;
59310;SDS011;45078;51.654;21.250;2023-04-12T13:14:57;13.80;;;7.38;;
59310;SDS011;45078;51.654;21.250;2023-04-12T13:17:24;12.80;;;7.18;;
59310;SDS011;45078;51.654;21.250;2023-04-12T13:19:54;15.02;;;8.45;;
59310;SDS011;45078;51.654;21.250;2023-04-12T13:22:20;14.52;;;8.07;;
59310;SDS011;45078;51.654;21.250;2023-04-12T13:24:46;13.35;;;7.53;;
59310;SDS011;45078;51.654;21.250;2023-04-12T13:27:12;13.55;;;7.80;;
59310;SDS011;45078;51.654;21.250;2023-04-12T13:29:39;14.88;;;8.05;;
59310;SDS011;45078;51.654;21.250;2023-04-12T13:32:05;14.35;;;7.78;;
59310;SDS011;45078;51.654;21.250;2023-04-12T13:34:31;12.85;;;7.13;;
59310;SDS011;45078;51.654;21.250;2023-04-12T13:36:57;14.55;;;8.18;;
59310;SDS011;45078;51.654;21.250;2023-04-12T13:39:23;12.40;;;7.38;;
59310;SDS011;45078;51.654;21.250;2023-04-12T13:41:49;12.65;;;7.40;;
59310;SDS011;45078;51.654;21.250;2023-04-12T13:44:15;13.25;;;7.53;;
59310;SDS011;45078;51.654;21.250;2023-04-12T13:46:41;15.18;;;7.63;;
59310;SDS011;45078;51.654;21.250;2023-04-12T13:49:07;12.75;;;7.45;;
59310;SDS011;45078;51.654;21.250;2023-04-12T13:51:33;14.48;;;7.70;;
59310;SDS011;45078;51.654;21.250;2023-04-12T13:53:59;13.32;;;7.30;;
59310;SDS011;45078;51.654;21.250;2023-04-12T13:56:25;13.77;;;7.63;;
59310;SDS011;45078;51.654;21.250;2023-04-12T13:58:50;14.15;;;7.38;;
59310;SDS011;45078;51.654;21.250;2023-04-12T14:01:16;13.48;;;7.80;;
59310;SDS011;45078;51.654;21.250;2023-04-12T14:03:42;11.95;;;7.45;;
59310;SDS011;45078;51.654;21.250;2023-04-12T14:06:08;12.43;;;7.80;;
59310;SDS011;45078;51.654;21.250;2023-04-12T14:08:34;9.02;;;5.97;;
59310;SDS011;45078;51.654;21.250;2023-04-12T14:11:03;10.93;;;6.60;;
59310;SDS011;45078;51.654;21.250;2023-04-12T14:13:29;11.68;;;6.97;;
59310;SDS011;45078;51.654;21.250;2023-04-12T14:15:55;12.63;;;6.68;;
59310;SDS011;45078;51.654;21.250;2023-04-12T14:18:21;12.73;;;6.10;;
59310;SDS011;45078;51.654;21.250;2023-04-12T14:20:47;11.10;;;6.53;;
59310;SDS011;45078;51.654;21.250;2023-04-12T14:23:16;12.55;;;7.57;;
59310;SDS011;45078;51.654;21.250;2023-04-12T14:25:43;11.68;;;6.93;;
59310;SDS011;45078;51.654;21.250;2023-04-12T14:28:09;10.18;;;6.38;;
59310;SDS011;45078;51.654;21.250;2023-04-12T14:30:34;10.85;;;5.72;;
59310;SDS011;45078;51.654;21.250;2023-04-12T14:33:00;13.43;;;6.97;;
59310;SDS011;45078;51.654;21.250;2023-04-12T14:35:26;11.18;;;6.93;;
59310;SDS011;45078;51.654;21.250;2023-04-12T14:37:51;12.63;;;6.97;;
59310;SDS011;45078;51.654;21.250;2023-04-12T14:40:17;14.70;;;7.22;;
59310;SDS011;45078;51.654;21.250;2023-04-12T14:42:43;12.27;;;7.53;;
59310;SDS011;45078;51.654;21.250;2023-04-12T14:45:09;12.77;;;7.07;;
59310;SDS011;45078;51.654;21.250;2023-04-12T14:47:35;12.00;;;7.03;;
59310;SDS011;45078;51.654;21.250;2023-04-12T14:50:02;13.18;;;6.50;;
59310;SDS011;45078;51.654;21.250;2023-04-12T14:52:28;12.02;;;7.20;;
59310;SDS011;45078;51.654;21.250;2023-04-12T14:54:53;11.48;;;6.88;;
59310;SDS011;45078;51.654;21.250;2023-04-12T14:57:19;9.73;;;5.55;;